Time;durP1;ratioP1;P1;durP2;ratioP2;P2;SDS_P1;SDS_P2;PMS_P1;PMS_P2;Temp;Humidity;BMP_temperature;BMP_pressure;BME280_temperature;BME280_humidity;BME280_pressure;Samples;Min_cycle;Max_cycle;Signal;HPM_P1;HPM_P2
2021/11/23 00:00:28;;;;;;;0.20;0.10;;;13.00;99.90;;;;;;21140758;28;20691;-69
2021/11/23 00:10:33;;;;;;;0.20;0.10;;;12.80;99.90;;;;;;21181820;27;20201;-69
2021/11/23 00:20:37;;;;;;;0.20;0.10;;;12.80;99.90;;;;;;21175026;27;20347;-70
2021/11/23 00:30:45;;;;;;;0.20;0.00;;;12.70;99.90;;;;;;21158980;28;20202;-70
2021/11/23 00:40:49;;;;;;;0.20;0.10;;;12.70;99.90;;;;;;21159043;28;20324;-69
2021/11/23 00:50:54;;;;;;;0.20;0.10;;;12.80;99.90;;;;;;21160777;28;20274;-71
2021/11/23 01:00:58;;;;;;;0.20;0.10;;;12.50;99.90;;;;;;21161419;28;20241;-74
2021/11/23 01:11:03;;;;;;;0.20;0.10;;;12.60;99.90;;;;;;21180308;27;20206;-72
2021/11/23 01:21:09;;;;;;;0.20;0.00;;;12.60;99.90;;;;;;21245135;27;20230;-73
2021/11/23 01:31:14;;;;;;;0.20;0.10;;;12.50;99.90;;;;;;21244601;27;20679;-74
2021/11/23 01:41:18;;;;;;;0.20;0.10;;;12.40;99.90;;;;;;21242062;27;20223;-71
2021/11/23 01:51:23;;;;;;;0.20;0.10;;;12.70;99.90;;;;;;21242193;27;20195;-72
2021/11/23 02:01:27;;;;;;;0.20;0.10;;;12.20;99.90;;;;;;21241243;27;20695;-72
2021/11/23 02:11:32;;;;;;;0.20;0.10;;;12.20;99.90;;;;;;21213920;27;20191;-71
2021/11/23 02:21:37;;;;;;;0.20;0.10;;;12.30;99.90;;;;;;21150984;28;20330;-71
2021/11/23 02:31:41;;;;;;;0.20;0.10;;;12.50;99.90;;;;;;21152884;28;20542;-72
2021/11/23 02:41:46;;;;;;;0.20;0.10;;;12.30;99.90;;;;;;21153087;27;20562;-72
2021/11/23 02:51:50;;;;;;;0.20;0.10;;;12.20;99.90;;;;;;21150935;28;20279;-74
2021/11/23 03:01:55;;;;;;;0.20;0.10;;;12.20;99.90;;;;;;21152670;28;20722;-75
2021/11/23 03:12:00;;;;;;;0.20;0.10;;;12.20;99.90;;;;;;21179319;27;20198;-74
2021/11/23 03:22:05;;;;;;;0.20;0.10;;;12.20;99.90;;;;;;21235362;27;20229;-74
2021/11/23 03:32:11;;;;;;;0.20;0.10;;;12.30;99.90;;;;;;21235447;27;20193;-73
2021/11/23 03:42:16;;;;;;;0.20;0.10;;;12.30;99.90;;;;;;21182217;27;20310;-74
2021/11/23 03:52:20;;;;;;;0.20;0.10;;;12.20;99.90;;;;;;21149589;28;20195;-74
2021/11/23 04:02:26;;;;;;;0.20;0.10;;;11.90;99.90;;;;;;21150015;28;20221;-74
2021/11/23 04:12:29;;;;;;;0.20;0.10;;;12.10;99.90;;;;;;21181132;28;20244;-73
2021/11/23 04:22:34;;;;;;;0.20;0.10;;;12.10;99.90;;;;;;21249827;27;20548;-73
2021/11/23 04:32:38;;;;;;;0.20;0.10;;;11.70;99.90;;;;;;21246430;27;20609;-73
2021/11/23 04:42:44;;;;;;;0.20;0.10;;;11.90;99.90;;;;;;21263679;27;20317;-71
2021/11/23 04:52:47;;;;;;;0.20;0.10;;;12.00;99.90;;;;;;21247100;27;20313;-73
2021/11/23 05:02:52;;;;;;;0.20;0.10;;;12.10;99.90;;;;;;21247216;27;20229;-73
2021/11/23 05:12:56;;;;;;;0.20;0.10;;;12.20;99.90;;;;;;21208303;27;20252;-73
2021/11/23 05:23:01;;;;;;;0.20;0.10;;;12.00;99.90;;;;;;21159421;28;20318;-72
2021/11/23 05:33:05;;;;;;;0.20;0.10;;;12.20;99.90;;;;;;21174364;27;20637;-71
2021/11/23 05:43:10;;;;;;;0.20;0.10;;;12.10;99.90;;;;;;21154793;28;20267;-73
2021/11/23 05:53:14;;;;;;;0.20;0.10;;;11.90;99.90;;;;;;21157313;28;20199;-72
2021/11/23 06:03:19;;;;;;;0.20;0.10;;;11.90;99.90;;;;;;21155625;28;20585;-71
2021/11/23 06:13:22;;;;;;;0.20;0.10;;;12.00;99.90;;;;;;21195601;27;20201;-71
2021/11/23 06:23:28;;;;;;;0.20;0.10;;;12.10;99.90;;;;;;21255168;27;20227;-72
2021/11/23 06:33:31;;;;;;;0.20;0.10;;;12.00;99.90;;;;;;21237525;27;20190;-74
2021/11/23 06:43:36;;;;;;;0.20;0.10;;;12.10;99.90;;;;;;21236277;27;20317;-71
2021/11/23 06:53:40;;;;;;;0.20;0.10;;;12.10;99.90;;;;;;21231835;27;20194;-72
2021/11/23 07:03:45;;;;;;;0.20;0.10;;;12.50;99.90;;;;;;21230562;27;20213;-72
2021/11/23 07:13:49;;;;;;;0.20;0.10;;;12.60;99.90;;;;;;21184503;27;20223;-72
2021/11/23 07:23:55;;;;;;;0.20;0.10;;;12.50;99.90;;;;;;21149644;28;20231;-73
2021/11/23 07:33:59;;;;;;;0.20;0.10;;;13.00;99.90;;;;;;21148562;28;20634;-71
2021/11/23 07:44:05;;;;;;;0.20;0.10;;;13.20;99.90;;;;;;21145208;28;20237;-71
2021/11/23 07:54:10;;;;;;;0.20;0.10;;;13.40;99.90;;;;;;21147173;28;20282;-71
2021/11/23 08:04:15;;;;;;;0.20;0.10;;;13.40;99.90;;;;;;21155826;28;20547;-74
2021/11/23 08:14:22;;;;;;;0.20;0.00;;;13.40;99.90;;;;;;21210692;27;20302;-70
2021/11/23 08:24:27;;;;;;;0.20;0.10;;;13.50;99.90;;;;;;21244970;27;20272;-66
2021/11/23 08:34:31;;;;;;;0.30;0.20;;;13.70;99.90;;;;;;21246346;27;20274;-72
2021/11/23 08:44:36;;;;;;;0.20;0.10;;;13.80;99.90;;;;;;21244760;27;20238;-71
2021/11/23 08:54:40;;;;;;;0.20;0.10;;;13.90;99.90;;;;;;21245367;27;20679;-73
2021/11/23 09:04:46;;;;;;;0.20;0.00;;;13.90;99.90;;;;;;21241780;27;20302;-74
2021/11/23 09:14:51;;;;;;;0.20;0.10;;;13.90;99.90;;;;;;21205521;27;20548;-71
2021/11/23 09:24:56;;;;;;;0.20;0.10;;;14.00;99.90;;;;;;21156808;28;20223;-71
2021/11/23 09:35:00;;;;;;;0.20;0.10;;;14.00;99.90;;;;;;21157848;28;20191;-71
2021/11/23 09:45:06;;;;;;;0.20;0.10;;;14.00;99.90;;;;;;21153655;28;20215;-73
2021/11/23 10:06:27;;;;;;;0.20;0.10;;;14.60;99.90;;;;;;21153824;28;20227;-71
2021/11/23 10:16:40;;;;;;;0.20;0.10;;;14.50;99.90;;;;;;21189398;27;20315;-71
2021/11/23 10:26:46;;;;;;;0.20;0.00;;;14.40;99.90;;;;;;21151152;28;20322;-71
2021/11/23 10:36:50;;;;;;;0.20;0.10;;;14.30;99.90;;;;;;21151510;28;20191;-71
2021/11/23 10:46:57;;;;;;;0.20;0.00;;;14.30;99.90;;;;;;21151081;28;20220;-72
2021/11/23 10:57:04;;;;;;;0.20;0.10;;;14.30;99.90;;;;;;21108136;28;20195;-69
2021/11/23 11:07:10;;;;;;;0.20;0.10;;;14.70;99.90;;;;;;21145490;27;20212;-69
2021/11/23 11:17:14;;;;;;;0.20;0.10;;;14.70;99.90;;;;;;21211893;27;20219;-71
2021/11/23 11:27:46;;;;;;;0.20;0.10;;;14.80;99.90;;;;;;21234493;27;20714;-70
2021/11/23 11:37:51;;;;;;;0.20;0.00;;;15.00;99.90;;;;;;21241202;27;20263;-68
2021/11/23 11:47:58;;;;;;;0.20;0.10;;;15.10;99.90;;;;;;21209760;27;20477;-69
2021/11/23 11:58:05;;;;;;;0.20;0.10;;;15.10;99.90;;;;;;21164811;28;20240;-70
2021/11/23 12:08:24;;;;;;;0.20;0.10;;;15.20;99.90;;;;;;21161796;28;20238;-70
2021/11/23 12:19:00;;;;;;;0.20;0.10;;;15.70;99.90;;;;;;21246588;27;20222;-70
2021/11/23 12:29:08;;;;;;;0.20;0.10;;;15.60;99.90;;;;;;21245328;27;20268;-73
2021/11/23 12:39:13;;;;;;;0.20;0.10;;;15.90;99.90;;;;;;21261884;27;20371;-71
2021/11/23 12:49:18;;;;;;;0.20;0.00;;;15.70;99.90;;;;;;21193809;27;20203;-71
2021/11/23 12:59:37;;;;;;;0.20;0.10;;;16.40;99.90;;;;;;21158443;28;20195;-71
2021/11/23 13:09:53;;;;;;;0.20;0.00;;;16.40;99.90;;;;;;21167552;27;20233;-71
2021/11/23 13:19:56;;;;;;;0.20;0.10;;;16.00;99.90;;;;;;21242168;27;20305;-69
2021/11/23 13:30:06;;;;;;;0.20;0.03;;;15.60;99.90;;;;;;21238401;27;20245;-71
2021/11/23 13:40:21;;;;;;;0.20;0.20;;;15.40;99.90;;;;;;21207726;27;20211;-70
2021/11/23 13:50:26;;;;;;;0.20;0.10;;;15.30;99.90;;;;;;21095333;28;20318;-69
2021/11/23 14:00:30;;;;;;;0.20;0.10;;;15.30;99.90;;;;;;21112655;28;20299;-69
2021/11/23 14:10:38;;;;;;;0.20;0.10;;;15.30;99.90;;;;;;21170591;27;20191;-70
2021/11/23 14:20:50;;;;;;;0.20;0.10;;;15.10;99.90;;;;;;21238518;27;20229;-74
2021/11/23 14:30:56;;;;;;;0.20;0.10;;;14.80;99.90;;;;;;21210485;27;20198;-69
2021/11/23 14:41:01;;;;;;;0.20;0.00;;;14.40;99.90;;;;;;21160801;27;20248;-72
2021/11/23 14:51:06;;;;;;;0.20;0.10;;;13.90;99.90;;;;;;21150843;28;20206;-73
2021/11/23 15:01:10;;;;;;;0.20;0.10;;;13.70;99.90;;;;;;21149707;28;20211;-70
2021/11/23 15:11:17;;;;;;;0.20;0.10;;;13.70;99.90;;;;;;21165714;27;20195;-69
2021/11/23 15:21:20;;;;;;;0.20;0.10;;;13.50;99.90;;;;;;21148847;28;20227;-70
2021/11/23 15:31:28;;;;;;;0.20;0.10;;;13.30;99.90;;;;;;21148091;28;20722;-68
2021/11/23 15:41:32;;;;;;;0.20;0.00;;;13.30;99.90;;;;;;21148486;28;20216;-67
2021/11/23 15:51:40;;;;;;;0.20;0.00;;;13.20;99.90;;;;;;21147046;28;20226;-69
2021/11/23 16:01:43;;;;;;;0.20;0.10;;;13.10;99.90;;;;;;21146187;28;20591;-68
2021/11/23 16:11:49;;;;;;;0.20;0.10;;;13.10;99.90;;;;;;21174773;28;20252;-68
2021/11/23 16:21:53;;;;;;;0.20;0.10;;;13.20;99.90;;;;;;21250942;27;20313;-68
2021/11/23 16:31:58;;;;;;;0.20;0.00;;;13.20;99.90;;;;;;21262578;27;20199;-67
2021/11/23 16:42:01;;;;;;;0.20;0.00;;;13.20;99.90;;;;;;21076653;28;20216;-68
2021/11/23 16:52:09;;;;;;;0.20;0.00;;;13.40;99.90;;;;;;21076760;28;20204;-65
2021/11/23 17:02:14;;;;;;;0.20;0.00;;;13.50;99.90;;;;;;21074870;28;20430;-68
2021/11/23 17:12:20;;;;;;;0.20;0.00;;;13.40;99.90;;;;;;21138458;27;20230;-69
2021/11/23 17:22:25;;;;;;;0.20;0.00;;;13.50;99.90;;;;;;21240891;27;20245;-71
2021/11/23 17:32:31;;;;;;;0.20;0.00;;;11.80;99.90;;;;;;21236677;27;20670;-69
2021/11/23 17:42:36;;;;;;;0.20;0.00;;;11.70;99.90;;;;;;21155866;27;20211;-69
2021/11/23 17:52:41;;;;;;;0.20;0.10;;;12.30;99.90;;;;;;21155591;27;20188;-70
2021/11/23 18:02:45;;;;;;;0.20;0.00;;;13.50;99.90;;;;;;21195289;27;20222;-71
2021/11/23 18:12:54;;;;;;;0.20;0.00;;;13.60;99.90;;;;;;21220712;27;20194;-71
2021/11/23 18:22:57;;;;;;;0.20;0.00;;;13.70;99.90;;;;;;21238142;27;20258;-72
2021/11/23 18:33:04;;;;;;;0.20;0.00;;;13.80;99.90;;;;;;21219316;27;20199;-71
2021/11/23 18:43:29;;;;;;;0.20;0.00;;;13.90;99.90;;;;;;21151816;28;20219;-72
2021/11/23 18:53:34;;;;;;;0.20;0.00;;;14.00;99.90;;;;;;21153036;28;20190;-71
2021/11/23 19:03:38;;;;;;;0.20;0.10;;;14.20;99.90;;;;;;21151793;28;20642;-71
2021/11/23 19:13:44;;;;;;;0.20;0.00;;;13.70;99.90;;;;;;21193507;27;20550;-73
2021/11/23 19:23:48;;;;;;;0.20;0.00;;;13.70;99.90;;;;;;21196636;27;20235;-71
2021/11/23 19:33:53;;;;;;;0.20;0.00;;;14.10;99.90;;;;;;21149735;28;20236;-72
2021/11/23 19:43:59;;;;;;;0.20;0.00;;;14.00;99.90;;;;;;21149164;28;20692;-73
2021/11/23 19:54:09;;;;;;;0.20;0.00;;;14.00;99.90;;;;;;21149482;28;20205;-71
2021/11/23 20:04:12;;;;;;;0.20;0.00;;;14.40;99.90;;;;;;21151334;28;20306;-70
2021/11/23 20:14:18;;;;;;;0.20;0.10;;;13.30;99.90;;;;;;21197964;27;20226;-69
2021/11/23 20:24:24;;;;;;;0.20;0.10;;;12.50;99.90;;;;;;21201131;27;20219;-69
2021/11/23 20:34:29;;;;;;;0.20;0.00;;;12.40;99.90;;;;;;21215141;27;20274;-69
2021/11/23 20:44:33;;;;;;;0.20;0.10;;;12.40;99.90;;;;;;21161921;28;20250;-69
2021/11/23 20:54:38;;;;;;;0.20;0.10;;;12.40;99.90;;;;;;21160518;28;20514;-69
2021/11/23 21:04:42;;;;;;;0.20;0.10;;;12.20;99.90;;;;;;21142546;28;20247;-68
2021/11/23 21:14:47;;;;;;;0.20;0.00;;;12.20;99.90;;;;;;21213388;27;20224;-72
2021/11/23 21:24:51;;;;;;;0.20;0.10;;;12.10;99.90;;;;;;21244493;27;20317;-73
2021/11/23 21:34:56;;;;;;;0.20;0.10;;;12.00;99.90;;;;;;21224946;27;20660;-72
2021/11/23 21:45:05;;;;;;;0.20;0.10;;;12.00;99.90;;;;;;21159102;28;20338;-74
2021/11/23 21:55:10;;;;;;;0.20;0.10;;;11.90;99.90;;;;;;21157070;28;20227;-71
2021/11/23 22:05:13;;;;;;;0.20;0.10;;;11.90;99.90;;;;;;21156733;28;20578;-73
2021/11/23 22:15:18;;;;;;;0.20;0.00;;;11.80;99.90;;;;;;21193901;27;20215;-73
2021/11/23 22:25:22;;;;;;;0.20;0.00;;;11.70;99.90;;;;;;21153354;28;20219;-73
2021/11/23 22:35:28;;;;;;;0.20;0.10;;;11.40;99.90;;;;;;21151897;28;20672;-72
2021/11/23 22:45:32;;;;;;;0.20;0.00;;;11.20;99.90;;;;;;21149660;28;20231;-74
2021/11/23 22:55:39;;;;;;;0.20;0.10;;;11.20;99.90;;;;;;21152915;28;20278;-73
2021/11/23 23:05:43;;;;;;;0.20;0.00;;;11.10;99.90;;;;;;21152171;27;20300;-74
2021/11/23 23:15:48;;;;;;;0.20;0.10;;;11.00;99.90;;;;;;21213672;27;20608;-72
2021/11/23 23:25:51;;;;;;;0.20;0.00;;;10.70;99.90;;;;;;21236368;27;20226;-72
2021/11/23 23:35:56;;;;;;;0.20;0.00;;;10.40;99.90;;;;;;21236675;27;20240;-72
2021/11/23 23:46:00;;;;;;;0.20;0.10;;;10.40;99.90;;;;;;21139644;27;20228;-70
2021/11/23 23:56:05;;;;;;;0.20;0.00;;;10.30;99.90;;;;;;21066173;28;20268;-71
